createdAt,value
2017-10-23T00:01:46.067Z,12.97
2017-10-23T00:04:13.752Z,10.90
2017-10-23T00:06:41.405Z,17.27
2017-10-23T00:09:08.946Z,6.47
2017-10-23T00:11:36.523Z,12.67
2017-10-23T00:14:04.286Z,15.00
2017-10-23T00:16:31.830Z,14.90
2017-10-23T00:18:59.394Z,11.70
2017-10-23T00:21:26.934Z,13.73
2017-10-23T00:23:54.470Z,16.77
2017-10-23T00:26:22.825Z,22.87
2017-10-23T00:28:50.458Z,19.13
2017-10-23T00:31:17.998Z,19.90
2017-10-23T00:33:45.574Z,21.80
2017-10-23T00:36:13.115Z,25.50
2017-10-23T00:38:40.658Z,15.03
2017-10-23T00:41:09.091Z,16.50
2017-10-23T00:43:38.154Z,15.93
2017-10-23T00:46:05.714Z,16.43
2017-10-23T00:48:33.286Z,22.50
2017-10-23T00:51:00.869Z,22.50
2017-10-23T00:53:28.428Z,22.37
2017-10-23T00:55:56.004Z,13.53
2017-10-23T00:58:23.536Z,27.67
2017-10-23T01:00:51.242Z,19.70
2017-10-23T01:03:19.550Z,21.67
2017-10-23T01:05:47.089Z,27.20
2017-10-23T01:08:14.667Z,22.60
2017-10-23T01:10:42.222Z,18.33
2017-10-23T01:13:09.788Z,26.50
2017-10-23T01:15:37.324Z,16.93
2017-10-23T01:18:05.021Z,15.67
2017-10-23T01:20:32.585Z,14.50
2017-10-23T01:23:00.132Z,21.47
2017-10-23T01:25:27.717Z,19.90
2017-10-23T01:27:55.258Z,28.73
2017-10-23T01:30:22.798Z,39.27
2017-10-23T01:32:50.374Z,20.23
2017-10-23T01:35:17.965Z,23.50
2017-10-23T01:37:45.534Z,17.53
2017-10-23T01:40:13.064Z,14.60
2017-10-23T01:42:40.634Z,19.63
2017-10-23T01:45:08.160Z,28.83
2017-10-23T01:47:35.709Z,18.00
2017-10-23T01:50:03.283Z,39.10
2017-10-23T01:52:30.837Z,21.40
2017-10-23T01:54:58.372Z,13.30
2017-10-23T01:57:26.698Z,12.13
2017-10-23T01:59:54.251Z,18.17
2017-10-23T02:02:21.822Z,36.30
2017-10-23T02:04:49.381Z,19.33
2017-10-23T02:07:16.912Z,17.00
2017-10-23T02:09:44.497Z,15.70
2017-10-23T02:12:12.046Z,30.00
2017-10-23T02:14:39.604Z,26.20
2017-10-23T02:17:07.156Z,18.60
2017-10-23T02:19:34.731Z,29.67
2017-10-23T02:22:02.268Z,23.17
2017-10-23T02:24:29.811Z,23.03
2017-10-23T02:26:57.390Z,19.53
2017-10-23T02:29:24.950Z,24.03
2017-10-23T02:31:52.515Z,25.43
2017-10-23T02:34:20.044Z,24.47
2017-10-23T02:36:47.584Z,25.80
2017-10-23T02:39:15.891Z,22.70
2017-10-23T02:41:43.450Z,33.87
2017-10-23T02:44:11.006Z,43.33
2017-10-23T02:46:38.567Z,38.50
2017-10-23T02:49:06.115Z,30.37
2017-10-23T02:51:33.699Z,25.60
2017-10-23T02:54:01.235Z,38.80
2017-10-23T02:56:28.810Z,28.37
2017-10-23T02:58:56.381Z,25.60
2017-10-23T03:01:23.931Z,31.37
2017-10-23T03:03:51.492Z,38.83
2017-10-23T03:06:19.030Z,32.50
2017-10-23T03:08:46.616Z,35.50
2017-10-23T03:11:14.171Z,33.80
2017-10-23T03:13:41.750Z,28.00
2017-10-23T03:16:09.316Z,25.87
2017-10-23T03:18:36.856Z,40.07
2017-10-23T03:21:04.511Z,31.60
2017-10-23T03:23:32.066Z,32.73
2017-10-23T03:25:59.627Z,31.47
2017-10-23T03:28:27.212Z,39.60
2017-10-23T03:30:54.756Z,26.40
2017-10-23T03:33:22.333Z,27.33
2017-10-23T03:35:49.876Z,27.57
2017-10-23T03:38:17.458Z,35.50
2017-10-23T03:40:45.002Z,35.63
2017-10-23T03:43:12.646Z,29.57
2017-10-23T03:45:40.222Z,45.20
2017-10-23T03:48:07.773Z,37.77
2017-10-23T03:50:35.304Z,31.40
2017-10-23T03:53:02.868Z,38.83
2017-10-23T03:55:30.437Z,33.55
2017-10-23T03:57:57.983Z,38.17
2017-10-23T04:00:25.546Z,37.03
2017-10-23T04:02:53.093Z,42.13
2017-10-23T04:05:20.696Z,33.33
2017-10-23T04:07:48.250Z,32.07
2017-10-23T04:10:15.807Z,23.33
2017-10-23T04:12:43.352Z,31.23
2017-10-23T04:15:10.894Z,35.47
2017-10-23T04:17:38.458Z,29.40
2017-10-23T04:20:06.022Z,28.87
2017-10-23T04:22:33.580Z,24.80
2017-10-23T04:25:01.146Z,27.53
2017-10-23T04:27:28.718Z,46.20
2017-10-23T04:29:56.245Z,30.90
2017-10-23T04:32:23.775Z,25.20
2017-10-23T04:34:52.098Z,30.73
2017-10-23T04:37:19.637Z,33.33
2017-10-23T04:39:47.214Z,31.13
2017-10-23T04:42:14.744Z,30.60
2017-10-23T04:44:43.065Z,32.90
2017-10-23T04:47:10.616Z,35.33
2017-10-23T04:49:38.160Z,32.20
2017-10-23T04:52:05.722Z,38.47
2017-10-23T04:54:33.262Z,25.43
2017-10-23T04:57:00.792Z,20.17
2017-10-23T04:59:28.359Z,31.37
2017-10-23T05:01:56.688Z,23.17
2017-10-23T05:04:24.258Z,33.03
2017-10-23T05:06:51.795Z,33.63
2017-10-23T05:09:19.349Z,23.27
2017-10-23T05:11:46.894Z,25.77
2017-10-23T05:14:14.473Z,24.23
2017-10-23T05:16:42.004Z,25.23
2017-10-23T05:19:10.328Z,26.37
2017-10-23T05:21:37.894Z,31.67
2017-10-23T05:24:05.437Z,26.63
2017-10-23T05:26:32.996Z,25.87
2017-10-23T05:29:00.553Z,29.40
2017-10-23T05:31:28.157Z,17.67
2017-10-23T05:33:55.721Z,31.63
2017-10-23T05:36:23.262Z,16.80
2017-10-23T05:38:51.589Z,36.53
2017-10-23T05:41:19.144Z,28.43
2017-10-23T05:43:46.704Z,28.77
2017-10-23T05:46:14.291Z,17.40
2017-10-23T05:48:41.820Z,57.60
2017-10-23T05:51:09.359Z,36.80
2017-10-23T05:53:37.665Z,21.33
2017-10-23T05:56:05.247Z,14.90
2017-10-23T05:58:32.789Z,21.23
2017-10-23T06:01:00.327Z,23.83
2017-10-23T06:03:27.884Z,30.20
2017-10-23T06:05:56.198Z,25.30
2017-10-23T06:08:23.756Z,23.23
2017-10-23T06:10:51.318Z,16.23
2017-10-23T06:13:18.854Z,34.00
2017-10-23T06:15:46.437Z,28.43
2017-10-23T06:18:13.996Z,26.23
2017-10-23T06:20:41.564Z,33.77
2017-10-23T06:23:09.095Z,20.83
2017-10-23T06:25:36.634Z,35.63
2017-10-23T06:28:04.970Z,23.20
2017-10-23T06:30:32.606Z,16.93
2017-10-23T06:33:00.135Z,31.73
2017-10-23T06:35:27.714Z,24.63
2017-10-23T06:37:55.243Z,18.90
2017-10-23T06:40:23.545Z,16.30
2017-10-23T06:42:51.219Z,16.73
2017-10-23T06:45:18.766Z,16.23
2017-10-23T06:47:46.322Z,20.80
2017-10-23T06:50:13.847Z,15.90
2017-10-23T06:52:42.183Z,32.13
2017-10-23T06:55:09.757Z,21.37
2017-10-23T06:57:37.328Z,21.17
2017-10-23T07:00:04.856Z,15.90
2017-10-23T07:02:32.400Z,12.47
2017-10-23T07:04:59.987Z,28.43
2017-10-23T07:07:27.627Z,23.77
2017-10-23T07:09:55.297Z,16.13
2017-10-23T07:12:22.855Z,17.43
2017-10-23T07:14:50.510Z,11.60
2017-10-23T07:17:18.036Z,24.13
2017-10-23T07:19:46.354Z,25.50
2017-10-23T07:22:13.898Z,22.80
2017-10-23T07:24:41.466Z,29.00
2017-10-23T07:27:09.911Z,22.83
2017-10-23T07:29:38.222Z,11.73
2017-10-23T07:32:05.882Z,16.40
2017-10-23T07:34:33.445Z,15.73
2017-10-23T07:37:01.018Z,15.20
2017-10-23T07:39:28.562Z,26.63
2017-10-23T07:41:56.126Z,12.43
2017-10-23T07:44:23.675Z,14.03
2017-10-23T07:46:51.245Z,10.03
2017-10-23T07:49:18.901Z,15.57
2017-10-23T07:51:46.442Z,16.63
2017-10-23T07:54:14.007Z,23.10
2017-10-23T07:56:41.562Z,20.37
2017-10-23T07:59:09.142Z,16.13
2017-10-23T08:01:36.683Z,27.63
2017-10-23T08:04:04.212Z,19.20
2017-10-23T08:06:32.540Z,15.23
2017-10-23T08:09:00.095Z,10.30
2017-10-23T08:11:27.661Z,14.83
2017-10-23T08:13:55.198Z,24.40
2017-10-23T08:16:22.744Z,14.37
2017-10-23T08:18:50.292Z,12.50
2017-10-23T08:21:17.862Z,18.10
2017-10-23T08:23:45.403Z,16.17
2017-10-23T08:26:13.708Z,27.93
2017-10-23T08:28:41.287Z,19.63
2017-10-23T08:31:08.838Z,20.23
2017-10-23T08:33:36.391Z,11.80
2017-10-23T08:36:03.973Z,25.07
2017-10-23T08:38:31.520Z,35.63
2017-10-23T08:40:59.088Z,19.33
2017-10-23T08:43:26.653Z,15.40
2017-10-23T08:45:54.216Z,17.93
2017-10-23T08:48:21.787Z,15.20
2017-10-23T08:50:49.319Z,20.53
2017-10-23T08:53:16.936Z,11.60
2017-10-23T08:55:44.492Z,19.43
2017-10-23T08:58:12.830Z,12.53
2017-10-23T09:00:40.379Z,18.80
2017-10-23T09:03:07.934Z,18.43
2017-10-23T09:05:35.506Z,16.57
2017-10-23T09:08:03.051Z,14.73
2017-10-23T09:10:30.598Z,19.97
2017-10-23T09:12:58.185Z,16.37
2017-10-23T09:15:25.752Z,18.80
2017-10-23T09:17:53.332Z,15.93
2017-10-23T09:20:21.667Z,11.40
2017-10-23T09:22:49.241Z,13.40
2017-10-23T09:25:16.808Z,9.00
2017-10-23T09:27:44.343Z,18.53
2017-10-23T09:30:11.921Z,17.40
2017-10-23T09:32:39.466Z,17.87
2017-10-23T09:35:07.042Z,22.70
2017-10-23T09:37:34.576Z,23.40
2017-10-23T09:40:02.133Z,14.33
2017-10-23T09:42:29.698Z,15.80
2017-10-23T09:44:57.227Z,16.83
2017-10-23T09:47:24.789Z,20.77
2017-10-23T09:49:52.327Z,16.00
2017-10-23T09:52:20.648Z,18.07
2017-10-23T09:54:48.195Z,28.40
2017-10-23T09:57:15.743Z,8.23
2017-10-23T09:59:43.450Z,11.73
2017-10-23T10:02:11.017Z,16.23
2017-10-23T10:04:38.603Z,16.00
2017-10-23T10:07:06.904Z,18.17
2017-10-23T10:09:34.472Z,15.10
2017-10-23T10:12:02.033Z,15.80
2017-10-23T10:14:29.607Z,14.30
2017-10-23T10:16:57.166Z,12.97
2017-10-23T10:19:24.742Z,19.13
2017-10-23T10:21:52.304Z,16.13
2017-10-23T10:24:19.861Z,13.67
2017-10-23T10:26:48.915Z,18.97
2017-10-23T10:29:16.448Z,20.20
2017-10-23T10:31:44.802Z,26.83
2017-10-23T10:34:12.340Z,22.77
2017-10-23T10:36:39.891Z,18.10
2017-10-23T10:39:07.458Z,13.87
2017-10-23T10:41:35.006Z,16.07
2017-10-23T10:44:02.589Z,20.67
2017-10-23T10:46:31.658Z,15.07
2017-10-23T10:48:59.213Z,17.83
2017-10-23T10:51:26.769Z,14.80
2017-10-23T10:53:54.364Z,19.57
2017-10-23T10:56:21.996Z,12.50
2017-10-23T10:58:49.538Z,27.53
2017-10-23T11:01:17.115Z,17.53
2017-10-23T11:03:44.662Z,12.87
2017-10-23T11:06:12.202Z,10.97
2017-10-23T11:08:39.770Z,18.10
2017-10-23T11:11:07.314Z,9.53
2017-10-23T11:13:35.632Z,12.10
2017-10-23T11:16:03.178Z,12.63
2017-10-23T11:18:30.732Z,20.77
2017-10-23T11:20:58.402Z,13.90
2017-10-23T11:23:25.943Z,22.37
2017-10-23T11:25:53.503Z,11.87
2017-10-23T11:28:21.066Z,6.93
2017-10-23T11:30:48.625Z,18.90
2017-10-23T11:33:16.208Z,14.93
2017-10-23T11:35:43.767Z,13.07
2017-10-23T11:38:11.316Z,14.40
2017-10-23T11:40:38.866Z,17.43
2017-10-23T11:43:06.456Z,12.13
2017-10-23T11:45:34.024Z,15.07
2017-10-23T11:48:01.574Z,12.03
2017-10-23T11:50:29.212Z,18.70
2017-10-23T11:52:56.758Z,12.60
2017-10-23T11:55:24.310Z,8.13
2017-10-23T11:57:51.874Z,11.10
2017-10-23T12:00:19.436Z,10.10
2017-10-23T12:02:47.003Z,12.67
2017-10-23T12:05:14.554Z,10.97
2017-10-23T12:07:42.130Z,15.70
2017-10-23T12:10:09.674Z,6.70
2017-10-23T12:12:37.212Z,14.37
2017-10-23T12:15:05.540Z,7.03
2017-10-23T12:17:33.105Z,12.20
2017-10-23T12:20:00.637Z,13.93
2017-10-23T12:22:28.229Z,13.47
2017-10-23T12:24:55.782Z,24.03
2017-10-23T12:27:23.346Z,13.37
2017-10-23T12:29:50.908Z,10.20
2017-10-23T12:32:18.461Z,15.50
2017-10-23T12:34:46.018Z,12.00
2017-10-23T12:37:13.576Z,8.50
2017-10-23T12:39:41.121Z,12.87
2017-10-23T12:42:08.681Z,6.70
2017-10-23T12:44:36.249Z,10.90
2017-10-23T12:47:03.812Z,16.57
2017-10-23T12:49:31.364Z,25.50
2017-10-23T12:51:58.924Z,10.73
2017-10-23T12:54:26.461Z,12.20
2017-10-23T12:56:54.010Z,9.83
2017-10-23T12:59:21.559Z,11.03
2017-10-23T13:01:49.246Z,15.87
2017-10-23T13:04:16.803Z,11.23
2017-10-23T13:06:44.374Z,16.97
2017-10-23T13:09:11.941Z,16.87
2017-10-23T13:11:39.499Z,11.83
2017-10-23T13:14:07.066Z,18.27
2017-10-23T13:16:34.649Z,17.77
2017-10-23T13:19:02.195Z,5.43
2017-10-23T13:21:29.747Z,12.20
2017-10-23T13:23:57.305Z,14.03
2017-10-23T13:26:24.860Z,16.60
2017-10-23T13:28:52.431Z,8.90
2017-10-23T13:31:19.998Z,10.23
2017-10-23T13:33:48.440Z,17.60
2017-10-23T13:36:16.006Z,15.90
2017-10-23T13:38:43.562Z,12.60
2017-10-23T13:41:11.152Z,10.50
2017-10-23T13:43:38.720Z,12.80
2017-10-23T13:46:07.157Z,10.40
2017-10-23T13:48:34.715Z,13.97
2017-10-23T13:51:02.244Z,11.63
2017-10-23T13:53:29.790Z,17.07
2017-10-23T13:55:58.148Z,13.73
2017-10-23T13:58:25.688Z,6.17
2017-10-23T14:00:53.214Z,8.93
2017-10-23T14:03:20.804Z,9.90
2017-10-23T14:05:48.339Z,11.20
2017-10-23T14:08:15.891Z,9.23
2017-10-23T14:10:43.476Z,9.47
2017-10-23T14:13:11.041Z,6.03
2017-10-23T14:15:38.686Z,10.50
2017-10-23T14:18:06.250Z,8.37
2017-10-23T14:20:33.803Z,10.17
2017-10-23T14:23:01.360Z,6.87
2017-10-23T14:25:28.944Z,8.60
2017-10-23T14:27:56.482Z,10.33
2017-10-23T14:30:24.050Z,12.67
2017-10-23T14:32:51.606Z,11.13
2017-10-23T14:35:19.264Z,11.60
2017-10-23T14:37:46.897Z,20.87
2017-10-23T14:40:14.490Z,11.57
2017-10-23T14:42:42.042Z,13.73
2017-10-23T14:45:09.603Z,11.80
2017-10-23T14:47:37.159Z,15.30
2017-10-23T14:50:04.818Z,19.50
2017-10-23T14:52:32.397Z,14.73
2017-10-23T14:54:59.949Z,19.43
2017-10-23T14:57:27.502Z,22.00
2017-10-23T14:59:55.063Z,19.90
2017-10-23T15:02:22.609Z,21.20
2017-10-23T15:04:50.186Z,22.07
2017-10-23T15:07:17.743Z,24.87
2017-10-23T15:09:45.290Z,26.50
2017-10-23T15:12:12.851Z,17.67
2017-10-23T15:14:40.398Z,20.50
2017-10-23T15:17:07.942Z,16.27
2017-10-23T15:19:35.552Z,17.10
2017-10-23T15:22:03.090Z,26.00
2017-10-23T15:24:30.656Z,13.37
2017-10-23T15:26:58.230Z,14.47
2017-10-23T15:29:25.786Z,15.93
2017-10-23T15:31:53.335Z,16.57
2017-10-23T15:34:20.914Z,14.37
2017-10-23T15:36:48.459Z,23.63
2017-10-23T15:39:16.016Z,14.00
2017-10-23T15:41:43.574Z,19.17
2017-10-23T15:44:11.129Z,34.33
2017-10-23T15:46:38.706Z,24.77
2017-10-23T15:49:06.243Z,15.47
2017-10-23T15:51:33.794Z,18.37
2017-10-23T15:54:01.362Z,13.97
2017-10-23T15:56:28.895Z,16.47
2017-10-23T15:58:56.448Z,21.70
2017-10-23T16:01:23.998Z,20.60
2017-10-23T16:03:52.354Z,20.40
2017-10-23T16:06:20.693Z,19.23
2017-10-23T16:08:49.008Z,22.80
2017-10-23T16:11:16.577Z,20.63
2017-10-23T16:13:44.915Z,24.07
2017-10-23T16:16:12.453Z,12.60
2017-10-23T16:18:40.048Z,18.20
2017-10-23T16:21:07.645Z,25.43
2017-10-23T16:23:35.961Z,26.13
2017-10-23T16:26:03.523Z,23.13
2017-10-23T16:28:31.100Z,19.43
2017-10-23T16:30:58.664Z,24.07
2017-10-23T16:33:26.229Z,16.00
2017-10-23T16:35:53.787Z,18.30
2017-10-23T16:38:21.354Z,21.67
2017-10-23T16:40:48.940Z,18.37
2017-10-23T16:43:17.235Z,21.13
2017-10-23T16:45:44.790Z,20.57
2017-10-23T16:48:12.354Z,29.33
2017-10-23T16:50:39.933Z,21.70
2017-10-23T16:53:07.502Z,19.93
2017-10-23T16:55:35.051Z,16.43
2017-10-23T16:58:02.615Z,24.93
2017-10-23T17:00:30.167Z,17.80
2017-10-23T17:02:57.746Z,27.10
2017-10-23T17:05:25.300Z,18.70
2017-10-23T17:07:52.846Z,18.70
2017-10-23T17:10:20.396Z,21.87
2017-10-23T17:12:47.945Z,18.70
2017-10-23T17:15:15.510Z,22.13
2017-10-23T17:17:43.039Z,17.77
2017-10-23T17:20:11.368Z,22.13
2017-10-23T17:22:38.907Z,18.20
2017-10-23T17:25:06.578Z,19.33
2017-10-23T17:27:34.137Z,22.73
2017-10-23T17:30:01.682Z,22.00
2017-10-23T17:32:29.357Z,24.90
2017-10-23T17:34:56.940Z,25.47
2017-10-23T17:37:24.577Z,18.40
2017-10-23T17:39:52.154Z,22.43
2017-10-23T17:42:19.702Z,22.67
2017-10-23T17:44:47.254Z,15.27
2017-10-23T17:47:14.837Z,28.70
2017-10-23T17:49:42.368Z,18.33
2017-10-23T17:52:09.903Z,16.47
2017-10-23T17:54:37.469Z,20.80
2017-10-23T17:57:05.036Z,25.83
2017-10-23T17:59:32.596Z,18.47
2017-10-23T18:02:00.157Z,19.57
2017-10-23T18:04:27.731Z,19.20
2017-10-23T18:06:55.325Z,19.33
2017-10-23T18:09:22.887Z,19.60
2017-10-23T18:11:50.468Z,20.73
2017-10-23T18:14:18.782Z,23.20
2017-10-23T18:16:46.445Z,20.97
2017-10-23T18:19:13.990Z,19.13
2017-10-23T18:21:41.530Z,18.43
2017-10-23T18:24:09.860Z,18.30
2017-10-23T18:26:37.410Z,21.97
2017-10-23T18:29:05.063Z,22.33
2017-10-23T18:31:32.623Z,20.90
2017-10-23T18:34:00.178Z,20.13
2017-10-23T18:36:27.770Z,23.20
2017-10-23T18:38:55.364Z,17.67
2017-10-23T18:41:23.777Z,24.23
2017-10-23T18:43:51.347Z,17.17
2017-10-23T18:46:18.888Z,14.03
2017-10-23T18:48:46.476Z,22.07
2017-10-23T18:51:14.022Z,19.13
2017-10-23T18:53:41.556Z,21.53
2017-10-23T18:56:09.112Z,13.67
2017-10-23T18:58:36.794Z,17.23
2017-10-23T19:01:04.356Z,15.57
2017-10-23T19:03:31.911Z,14.80
2017-10-23T19:05:59.482Z,17.03
2017-10-23T19:08:27.020Z,23.53
2017-10-23T19:10:54.621Z,28.10
2017-10-23T19:13:22.212Z,17.37
2017-10-23T19:15:50.530Z,21.43
2017-10-23T19:18:18.097Z,19.03
2017-10-23T19:20:45.647Z,22.67
2017-10-23T19:23:13.309Z,21.00
2017-10-23T19:25:40.891Z,21.20
2017-10-23T19:33:50.548Z,17.27
2017-10-23T19:36:18.081Z,29.67
2017-10-23T19:38:45.671Z,25.93
2017-10-23T19:41:13.223Z,19.63
2017-10-23T19:43:40.755Z,22.63
2017-10-23T19:46:08.338Z,28.17
2017-10-23T19:48:35.886Z,19.77
2017-10-23T19:51:03.493Z,23.67
2017-10-23T19:53:31.061Z,24.07
2017-10-23T19:55:58.600Z,22.57
2017-10-23T19:58:26.185Z,27.33
2017-10-23T20:00:53.738Z,21.87
2017-10-23T20:03:21.321Z,23.77
2017-10-23T20:05:49.737Z,24.13
2017-10-23T20:08:17.296Z,26.97
2017-10-23T20:10:44.857Z,26.87
2017-10-23T20:13:12.392Z,24.53
2017-10-23T20:15:39.986Z,26.10
2017-10-23T20:18:07.548Z,38.03
2017-10-23T20:20:35.123Z,32.57
2017-10-23T20:23:02.678Z,28.67
2017-10-23T20:25:30.238Z,33.60
2017-10-23T20:27:57.826Z,32.63
2017-10-23T20:30:26.161Z,28.83
2017-10-23T20:32:53.745Z,28.73
2017-10-23T20:35:21.299Z,27.70
2017-10-23T20:37:48.850Z,29.20
2017-10-23T20:40:16.408Z,30.07
2017-10-23T20:42:43.970Z,24.33
2017-10-23T20:45:11.528Z,40.23
2017-10-23T20:47:39.081Z,32.27
2017-10-23T20:50:06.658Z,37.63
2017-10-23T20:52:34.215Z,36.60
2017-10-23T20:55:01.776Z,33.57
2017-10-23T20:57:29.341Z,34.80
2017-10-23T20:59:57.003Z,37.73
2017-10-23T21:02:24.573Z,32.60
2017-10-23T21:04:52.892Z,34.13
2017-10-23T21:07:20.427Z,40.23
2017-10-23T21:09:49.171Z,39.00
2017-10-23T21:12:16.722Z,45.57
2017-10-23T21:14:44.274Z,34.50
2017-10-23T21:17:11.868Z,51.07
2017-10-23T21:19:39.440Z,41.53
2017-10-23T21:22:07.772Z,44.07
2017-10-23T21:24:35.363Z,42.30
2017-10-23T21:27:03.675Z,35.53
2017-10-23T21:29:31.256Z,43.60
2017-10-23T21:31:58.835Z,35.57
2017-10-23T21:34:26.376Z,42.10
2017-10-23T21:36:53.957Z,38.13
2017-10-23T21:39:21.558Z,56.27
2017-10-23T21:41:49.155Z,38.87
2017-10-23T21:44:16.688Z,42.80
2017-10-23T21:46:56.123Z,50.50
2017-10-23T21:49:23.676Z,47.90
2017-10-23T21:51:51.991Z,39.27
2017-10-23T21:54:19.570Z,42.33
2017-10-23T21:56:47.122Z,37.00
2017-10-23T21:59:14.656Z,40.50
2017-10-23T22:01:42.216Z,48.10
2017-10-23T22:04:09.771Z,44.50
2017-10-23T22:06:37.326Z,46.27
2017-10-23T22:09:05.003Z,46.07
2017-10-23T22:11:32.568Z,52.20
2017-10-23T22:14:00.228Z,51.17
2017-10-23T22:16:27.806Z,46.60
2017-10-23T22:18:55.357Z,39.27
2017-10-23T22:21:22.924Z,38.47
2017-10-23T22:23:50.511Z,40.60
2017-10-23T22:26:18.830Z,42.93
2017-10-23T22:28:46.382Z,40.87
2017-10-23T22:31:13.945Z,38.60
2017-10-23T22:33:41.475Z,50.90
2017-10-23T22:36:09.896Z,51.00
2017-10-23T22:38:37.456Z,53.87
2017-10-23T22:41:05.025Z,47.63
2017-10-23T22:43:32.580Z,41.03
2017-10-23T22:46:00.141Z,57.70
2017-10-23T22:48:27.682Z,55.93
2017-10-23T22:50:55.228Z,54.27
2017-10-23T22:53:22.803Z,43.83
2017-10-23T22:55:50.368Z,43.40
2017-10-23T22:58:17.923Z,43.10
2017-10-23T23:00:45.576Z,49.90
2017-10-23T23:03:13.128Z,55.87
2017-10-23T23:05:40.682Z,42.13
2017-10-23T23:08:08.240Z,45.70
2017-10-23T23:10:35.786Z,37.37
2017-10-23T23:13:04.102Z,46.80
2017-10-23T23:15:31.684Z,42.30
2017-10-23T23:17:59.236Z,53.70
2017-10-23T23:20:26.772Z,45.60
2017-10-23T23:22:54.372Z,50.23
2017-10-23T23:25:21.930Z,53.13
2017-10-23T23:27:49.497Z,50.03
2017-10-23T23:30:17.088Z,45.00
2017-10-23T23:32:44.651Z,53.57
2017-10-23T23:35:12.216Z,56.97
2017-10-23T23:37:39.796Z,50.93
2017-10-23T23:40:07.356Z,58.47
2017-10-23T23:42:35.014Z,49.00
2017-10-23T23:45:02.590Z,52.63
2017-10-23T23:47:30.234Z,58.97
2017-10-23T23:49:57.801Z,55.97
2017-10-23T23:52:25.412Z,60.53
2017-10-23T23:54:53.712Z,61.43
2017-10-23T23:57:21.276Z,59.90
2017-10-23T23:59:48.869Z,64.00
